sensor_id;sensor_type;location;lat;lon;timestamp;P1;durP1;ratioP1;P2;durP2;ratioP2
27209;SDS011;14721;42.668;23.386;2022-12-29T00:02:25;20.20;;;9.03;;
27209;SDS011;14721;42.668;23.386;2022-12-29T00:04:51;20.27;;;9.90;;
27209;SDS011;14721;42.668;23.386;2022-12-29T00:07:18;19.37;;;9.07;;
27209;SDS011;14721;42.668;23.386;2022-12-29T00:09:46;22.00;;;10.37;;
27209;SDS011;14721;42.668;23.386;2022-12-29T00:12:12;19.73;;;9.43;;
27209;SDS011;14721;42.668;23.386;2022-12-29T00:17:32;23.10;;;9.17;;
27209;SDS011;14721;42.668;23.386;2022-12-29T00:20:00;23.23;;;10.03;;
27209;SDS011;14721;42.668;23.386;2022-12-29T00:22:44;20.73;;;11.30;;
27209;SDS011;14721;42.668;23.386;2022-12-29T00:25:27;21.10;;;10.53;;
27209;SDS011;14721;42.668;23.386;2022-12-29T00:28:12;23.30;;;10.37;;
27209;SDS011;14721;42.668;23.386;2022-12-29T00:30:59;25.63;;;11.57;;
27209;SDS011;14721;42.668;23.386;2022-12-29T00:33:44;28.27;;;11.60;;
27209;SDS011;14721;42.668;23.386;2022-12-29T00:36:39;27.00;;;12.30;;
27209;SDS011;14721;42.668;23.386;2022-12-29T00:39:17;25.70;;;11.87;;
27209;SDS011;14721;42.668;23.386;2022-12-29T00:44:51;24.33;;;10.83;;
27209;SDS011;14721;42.668;23.386;2022-12-29T00:47:17;26.07;;;11.93;;
27209;SDS011;14721;42.668;23.386;2022-12-29T00:49:43;26.73;;;12.87;;
27209;SDS011;14721;42.668;23.386;2022-12-29T00:52:10;23.03;;;10.33;;
27209;SDS011;14721;42.668;23.386;2022-12-29T00:54:37;23.37;;;11.87;;
27209;SDS011;14721;42.668;23.386;2022-12-29T00:57:05;35.43;;;12.13;;
27209;SDS011;14721;42.668;23.386;2022-12-29T01:02:08;26.60;;;11.67;;
27209;SDS011;14721;42.668;23.386;2022-12-29T01:04:36;24.17;;;11.00;;
27209;SDS011;14721;42.668;23.386;2022-12-29T01:07:02;20.33;;;10.60;;
27209;SDS011;14721;42.668;23.386;2022-12-29T01:09:28;17.10;;;9.07;;
27209;SDS011;14721;42.668;23.386;2022-12-29T01:12:13;21.77;;;8.83;;
27209;SDS011;14721;42.668;23.386;2022-12-29T01:17:10;17.57;;;9.60;;
27209;SDS011;14721;42.668;23.386;2022-12-29T01:19:36;15.53;;;8.73;;
27209;SDS011;14721;42.668;23.386;2022-12-29T01:22:02;20.13;;;8.87;;
27209;SDS011;14721;42.668;23.386;2022-12-29T01:27:15;17.60;;;9.07;;
27209;SDS011;14721;42.668;23.386;2022-12-29T01:29:43;20.17;;;10.40;;
27209;SDS011;14721;42.668;23.386;2022-12-29T01:32:09;20.10;;;9.03;;
27209;SDS011;14721;42.668;23.386;2022-12-29T01:34:36;20.00;;;10.40;;
27209;SDS011;14721;42.668;23.386;2022-12-29T01:37:02;19.67;;;8.67;;
27209;SDS011;14721;42.668;23.386;2022-12-29T01:39:29;16.93;;;8.97;;
27209;SDS011;14721;42.668;23.386;2022-12-29T01:41:55;20.77;;;9.70;;
27209;SDS011;14721;42.668;23.386;2022-12-29T01:47:15;16.93;;;8.10;;
27209;SDS011;14721;42.668;23.386;2022-12-29T01:49:52;18.50;;;9.40;;
27209;SDS011;14721;42.668;23.386;2022-12-29T01:52:21;24.13;;;10.30;;
27209;SDS011;14721;42.668;23.386;2022-12-29T01:54:50;16.57;;;8.93;;
27209;SDS011;14721;42.668;23.386;2022-12-29T01:57:25;18.63;;;9.23;;
27209;SDS011;14721;42.668;23.386;2022-12-29T01:59:56;16.20;;;9.53;;
27209;SDS011;14721;42.668;23.386;2022-12-29T02:02:25;18.57;;;9.27;;
27209;SDS011;14721;42.668;23.386;2022-12-29T02:04:52;14.90;;;8.20;;
27209;SDS011;14721;42.668;23.386;2022-12-29T02:07:23;22.23;;;8.70;;
27209;SDS011;14721;42.668;23.386;2022-12-29T02:09:52;16.87;;;8.37;;
27209;SDS011;14721;42.668;23.386;2022-12-29T02:12:20;19.47;;;9.47;;
27209;SDS011;14721;42.668;23.386;2022-12-29T02:14:48;17.47;;;9.20;;
27209;SDS011;14721;42.668;23.386;2022-12-29T02:31:55;23.20;;;9.90;;
27209;SDS011;14721;42.668;23.386;2022-12-29T02:37:23;20.97;;;10.83;;
27209;SDS011;14721;42.668;23.386;2022-12-29T02:40:04;21.50;;;10.87;;
27209;SDS011;14721;42.668;23.386;2022-12-29T02:42:42;26.73;;;9.97;;
27209;SDS011;14721;42.668;23.386;2022-12-29T02:51:15;22.17;;;10.20;;
27209;SDS011;14721;42.668;23.386;2022-12-29T02:56:36;21.40;;;10.07;;
27209;SDS011;14721;42.668;23.386;2022-12-29T03:12:18;28.53;;;11.80;;
27209;SDS011;14721;42.668;23.386;2022-12-29T03:15:27;16.30;;;8.40;;
27209;SDS011;14721;42.668;23.386;2022-12-29T03:18:56;21.47;;;9.20;;
27209;SDS011;14721;42.668;23.386;2022-12-29T03:24:26;21.23;;;9.47;;
27209;SDS011;14721;42.668;23.386;2022-12-29T03:27:03;15.43;;;8.13;;
27209;SDS011;14721;42.668;23.386;2022-12-29T03:29:35;18.17;;;10.20;;
27209;SDS011;14721;42.668;23.386;2022-12-29T03:32:04;18.50;;;9.77;;
27209;SDS011;14721;42.668;23.386;2022-12-29T03:34:32;20.43;;;9.90;;
27209;SDS011;14721;42.668;23.386;2022-12-29T03:37:06;23.10;;;10.60;;
27209;SDS011;14721;42.668;23.386;2022-12-29T03:39:36;23.00;;;10.40;;
27209;SDS011;14721;42.668;23.386;2022-12-29T03:42:05;21.60;;;10.67;;
27209;SDS011;14721;42.668;23.386;2022-12-29T03:44:41;23.83;;;11.53;;
27209;SDS011;14721;42.668;23.386;2022-12-29T03:47:09;21.43;;;10.30;;
27209;SDS011;14721;42.668;23.386;2022-12-29T03:49:37;26.70;;;11.27;;
27209;SDS011;14721;42.668;23.386;2022-12-29T03:52:04;22.20;;;10.97;;
27209;SDS011;14721;42.668;23.386;2022-12-29T03:54:30;21.33;;;11.60;;
27209;SDS011;14721;42.668;23.386;2022-12-29T03:56:56;21.70;;;11.20;;
27209;SDS011;14721;42.668;23.386;2022-12-29T03:59:23;23.13;;;11.10;;
27209;SDS011;14721;42.668;23.386;2022-12-29T04:01:51;25.83;;;11.30;;
27209;SDS011;14721;42.668;23.386;2022-12-29T04:04:17;26.37;;;11.37;;
27209;SDS011;14721;42.668;23.386;2022-12-29T04:06:42;30.53;;;11.53;;
27209;SDS011;14721;42.668;23.386;2022-12-29T04:09:09;25.20;;;11.73;;
27209;SDS011;14721;42.668;23.386;2022-12-29T04:11:35;26.73;;;12.23;;
27209;SDS011;14721;42.668;23.386;2022-12-29T04:14:02;24.70;;;11.03;;
27209;SDS011;14721;42.668;23.386;2022-12-29T04:16:30;25.47;;;12.57;;
27209;SDS011;14721;42.668;23.386;2022-12-29T04:18:57;24.40;;;12.80;;
27209;SDS011;14721;42.668;23.386;2022-12-29T04:21:24;25.07;;;10.43;;
27209;SDS011;14721;42.668;23.386;2022-12-29T04:23:50;36.30;;;14.60;;
27209;SDS011;14721;42.668;23.386;2022-12-29T04:26:17;24.90;;;13.07;;
27209;SDS011;14721;42.668;23.386;2022-12-29T04:28:43;27.70;;;10.30;;
27209;SDS011;14721;42.668;23.386;2022-12-29T04:31:08;23.70;;;10.53;;
27209;SDS011;14721;42.668;23.386;2022-12-29T04:33:34;29.50;;;12.30;;
27209;SDS011;14721;42.668;23.386;2022-12-29T04:35:59;24.03;;;11.77;;
27209;SDS011;14721;42.668;23.386;2022-12-29T04:38:25;21.63;;;11.73;;
27209;SDS011;14721;42.668;23.386;2022-12-29T04:40:59;22.17;;;10.53;;
27209;SDS011;14721;42.668;23.386;2022-12-29T04:43:26;23.03;;;11.77;;
27209;SDS011;14721;42.668;23.386;2022-12-29T04:45:51;15.80;;;8.07;;
27209;SDS011;14721;42.668;23.386;2022-12-29T04:48:18;19.57;;;9.10;;
27209;SDS011;14721;42.668;23.386;2022-12-29T04:50:46;21.73;;;10.83;;
27209;SDS011;14721;42.668;23.386;2022-12-29T04:53:14;24.23;;;9.93;;
27209;SDS011;14721;42.668;23.386;2022-12-29T04:55:42;16.73;;;8.80;;
27209;SDS011;14721;42.668;23.386;2022-12-29T04:58:08;30.63;;;10.00;;
27209;SDS011;14721;42.668;23.386;2022-12-29T05:00:34;20.63;;;9.67;;
27209;SDS011;14721;42.668;23.386;2022-12-29T05:03:03;18.27;;;8.73;;
27209;SDS011;14721;42.668;23.386;2022-12-29T05:05:28;20.77;;;10.03;;
27209;SDS011;14721;42.668;23.386;2022-12-29T05:07:54;23.73;;;11.07;;
27209;SDS011;14721;42.668;23.386;2022-12-29T05:10:25;22.30;;;10.13;;
27209;SDS011;14721;42.668;23.386;2022-12-29T05:12:51;22.00;;;10.70;;
27209;SDS011;14721;42.668;23.386;2022-12-29T05:15:16;19.73;;;11.10;;
27209;SDS011;14721;42.668;23.386;2022-12-29T05:20:39;25.17;;;11.47;;
27209;SDS011;14721;42.668;23.386;2022-12-29T05:23:04;21.70;;;10.47;;
27209;SDS011;14721;42.668;23.386;2022-12-29T05:25:30;19.83;;;10.20;;
27209;SDS011;14721;42.668;23.386;2022-12-29T05:27:56;19.03;;;10.90;;
27209;SDS011;14721;42.668;23.386;2022-12-29T05:30:22;25.53;;;11.83;;
27209;SDS011;14721;42.668;23.386;2022-12-29T05:32:47;24.40;;;10.40;;
27209;SDS011;14721;42.668;23.386;2022-12-29T05:35:13;22.73;;;11.37;;
27209;SDS011;14721;42.668;23.386;2022-12-29T05:37:38;19.97;;;9.67;;
27209;SDS011;14721;42.668;23.386;2022-12-29T05:40:04;22.83;;;10.97;;
27209;SDS011;14721;42.668;23.386;2022-12-29T05:42:30;21.67;;;9.87;;
27209;SDS011;14721;42.668;23.386;2022-12-29T05:44:56;26.03;;;10.53;;
27209;SDS011;14721;42.668;23.386;2022-12-29T05:47:21;22.57;;;11.53;;
27209;SDS011;14721;42.668;23.386;2022-12-29T05:49:47;25.90;;;12.87;;
27209;SDS011;14721;42.668;23.386;2022-12-29T05:55:11;25.37;;;10.97;;
27209;SDS011;14721;42.668;23.386;2022-12-29T05:57:37;21.40;;;11.23;;
27209;SDS011;14721;42.668;23.386;2022-12-29T06:00:15;23.50;;;11.73;;
27209;SDS011;14721;42.668;23.386;2022-12-29T06:02:40;22.03;;;10.93;;
27209;SDS011;14721;42.668;23.386;2022-12-29T06:05:08;25.03;;;11.23;;
27209;SDS011;14721;42.668;23.386;2022-12-29T06:07:35;22.47;;;10.93;;
27209;SDS011;14721;42.668;23.386;2022-12-29T06:10:01;23.67;;;11.00;;
27209;SDS011;14721;42.668;23.386;2022-12-29T06:12:36;23.20;;;12.37;;
27209;SDS011;14721;42.668;23.386;2022-12-29T06:15:02;23.73;;;10.60;;
27209;SDS011;14721;42.668;23.386;2022-12-29T06:17:28;20.37;;;9.50;;
27209;SDS011;14721;42.668;23.386;2022-12-29T06:19:54;21.37;;;10.67;;
27209;SDS011;14721;42.668;23.386;2022-12-29T06:22:19;20.13;;;10.63;;
27209;SDS011;14721;42.668;23.386;2022-12-29T06:24:45;29.33;;;13.47;;
27209;SDS011;14721;42.668;23.386;2022-12-29T06:27:11;27.50;;;12.43;;
27209;SDS011;14721;42.668;23.386;2022-12-29T06:29:39;27.33;;;12.77;;
27209;SDS011;14721;42.668;23.386;2022-12-29T06:32:10;31.13;;;12.40;;
27209;SDS011;14721;42.668;23.386;2022-12-29T06:34:35;25.20;;;11.97;;
27209;SDS011;14721;42.668;23.386;2022-12-29T06:37:03;30.30;;;13.13;;
27209;SDS011;14721;42.668;23.386;2022-12-29T06:39:31;26.87;;;14.63;;
27209;SDS011;14721;42.668;23.386;2022-12-29T06:41:56;32.47;;;13.87;;
27209;SDS011;14721;42.668;23.386;2022-12-29T06:44:23;25.47;;;12.67;;
27209;SDS011;14721;42.668;23.386;2022-12-29T06:46:49;24.93;;;12.73;;
27209;SDS011;14721;42.668;23.386;2022-12-29T06:49:15;33.20;;;13.23;;
27209;SDS011;14721;42.668;23.386;2022-12-29T06:51:42;25.07;;;12.87;;
27209;SDS011;14721;42.668;23.386;2022-12-29T06:54:07;25.67;;;14.17;;
27209;SDS011;14721;42.668;23.386;2022-12-29T06:56:33;26.33;;;12.33;;
27209;SDS011;14721;42.668;23.386;2022-12-29T06:59:01;22.40;;;11.40;;
27209;SDS011;14721;42.668;23.386;2022-12-29T07:01:26;28.03;;;13.03;;
27209;SDS011;14721;42.668;23.386;2022-12-29T07:08:53;28.90;;;11.40;;
27209;SDS011;14721;42.668;23.386;2022-12-29T07:11:21;27.77;;;12.17;;
27209;SDS011;14721;42.668;23.386;2022-12-29T07:13:46;21.83;;;11.17;;
27209;SDS011;14721;42.668;23.386;2022-12-29T07:16:13;23.63;;;11.03;;
27209;SDS011;14721;42.668;23.386;2022-12-29T07:18:39;20.10;;;9.80;;
27209;SDS011;14721;42.668;23.386;2022-12-29T07:21:04;30.30;;;11.83;;
27209;SDS011;14721;42.668;23.386;2022-12-29T07:23:30;21.70;;;11.63;;
27209;SDS011;14721;42.668;23.386;2022-12-29T07:26:01;25.83;;;11.87;;
27209;SDS011;14721;42.668;23.386;2022-12-29T07:28:29;21.97;;;11.30;;
27209;SDS011;14721;42.668;23.386;2022-12-29T07:30:56;31.07;;;12.93;;
27209;SDS011;14721;42.668;23.386;2022-12-29T07:33:21;25.23;;;12.37;;
27209;SDS011;14721;42.668;23.386;2022-12-29T07:35:47;25.40;;;11.00;;
27209;SDS011;14721;42.668;23.386;2022-12-29T07:38:13;21.10;;;11.33;;
27209;SDS011;14721;42.668;23.386;2022-12-29T07:40:39;23.13;;;11.97;;
27209;SDS011;14721;42.668;23.386;2022-12-29T07:43:04;26.93;;;11.67;;
27209;SDS011;14721;42.668;23.386;2022-12-29T07:45:31;23.83;;;12.97;;
27209;SDS011;14721;42.668;23.386;2022-12-29T07:47:56;25.27;;;12.57;;
27209;SDS011;14721;42.668;23.386;2022-12-29T07:50:22;28.33;;;12.13;;
27209;SDS011;14721;42.668;23.386;2022-12-29T07:52:47;23.37;;;12.37;;
27209;SDS011;14721;42.668;23.386;2022-12-29T07:55:16;23.47;;;11.40;;
27209;SDS011;14721;42.668;23.386;2022-12-29T07:57:42;23.10;;;11.80;;
27209;SDS011;14721;42.668;23.386;2022-12-29T08:00:08;29.70;;;13.03;;
27209;SDS011;14721;42.668;23.386;2022-12-29T08:02:35;26.43;;;14.47;;
27209;SDS011;14721;42.668;23.386;2022-12-29T08:05:01;22.20;;;11.80;;
27209;SDS011;14721;42.668;23.386;2022-12-29T08:07:26;23.17;;;12.07;;
27209;SDS011;14721;42.668;23.386;2022-12-29T08:09:52;23.73;;;12.50;;
27209;SDS011;14721;42.668;23.386;2022-12-29T08:12:18;24.60;;;14.97;;
27209;SDS011;14721;42.668;23.386;2022-12-29T08:14:43;32.30;;;15.30;;
27209;SDS011;14721;42.668;23.386;2022-12-29T08:17:12;29.90;;;14.53;;
27209;SDS011;14721;42.668;23.386;2022-12-29T08:19:37;34.83;;;14.97;;
27209;SDS011;14721;42.668;23.386;2022-12-29T08:22:03;28.17;;;15.33;;
27209;SDS011;14721;42.668;23.386;2022-12-29T08:24:29;30.40;;;14.77;;
27209;SDS011;14721;42.668;23.386;2022-12-29T08:26:54;27.03;;;14.00;;
27209;SDS011;14721;42.668;23.386;2022-12-29T08:29:20;32.53;;;14.73;;
27209;SDS011;14721;42.668;23.386;2022-12-29T08:31:51;29.37;;;15.80;;
27209;SDS011;14721;42.668;23.386;2022-12-29T08:34:19;30.23;;;16.13;;
27209;SDS011;14721;42.668;23.386;2022-12-29T08:36:45;28.03;;;14.77;;
27209;SDS011;14721;42.668;23.386;2022-12-29T08:39:11;30.93;;;15.10;;
27209;SDS011;14721;42.668;23.386;2022-12-29T08:41:36;30.23;;;15.83;;
27209;SDS011;14721;42.668;23.386;2022-12-29T08:44:02;29.50;;;15.57;;
27209;SDS011;14721;42.668;23.386;2022-12-29T08:46:27;32.43;;;15.13;;
27209;SDS011;14721;42.668;23.386;2022-12-29T08:48:53;34.80;;;15.50;;
27209;SDS011;14721;42.668;23.386;2022-12-29T08:51:19;34.07;;;15.80;;
27209;SDS011;14721;42.668;23.386;2022-12-29T08:53:44;32.77;;;15.67;;
27209;SDS011;14721;42.668;23.386;2022-12-29T08:56:10;30.63;;;16.23;;
27209;SDS011;14721;42.668;23.386;2022-12-29T08:58:38;39.97;;;18.43;;
27209;SDS011;14721;42.668;23.386;2022-12-29T09:01:04;33.17;;;17.50;;
27209;SDS011;14721;42.668;23.386;2022-12-29T09:03:32;33.93;;;16.73;;
27209;SDS011;14721;42.668;23.386;2022-12-29T09:05:58;31.73;;;15.90;;
27209;SDS011;14721;42.668;23.386;2022-12-29T09:08:26;33.87;;;14.90;;
27209;SDS011;14721;42.668;23.386;2022-12-29T09:10:55;31.20;;;15.87;;
27209;SDS011;14721;42.668;23.386;2022-12-29T09:13:30;32.13;;;15.83;;
27209;SDS011;14721;42.668;23.386;2022-12-29T09:15:58;29.10;;;14.73;;
27209;SDS011;14721;42.668;23.386;2022-12-29T09:18:29;34.33;;;15.53;;
27209;SDS011;14721;42.668;23.386;2022-12-29T09:20:59;29.03;;;14.03;;
27209;SDS011;14721;42.668;23.386;2022-12-29T09:23:28;32.60;;;14.63;;
27209;SDS011;14721;42.668;23.386;2022-12-29T09:25:57;35.17;;;15.80;;
27209;SDS011;14721;42.668;23.386;2022-12-29T09:28:23;31.90;;;16.93;;
27209;SDS011;14721;42.668;23.386;2022-12-29T09:30:49;38.73;;;17.47;;
27209;SDS011;14721;42.668;23.386;2022-12-29T09:33:18;39.60;;;19.10;;
27209;SDS011;14721;42.668;23.386;2022-12-29T09:35:44;26.10;;;14.43;;
27209;SDS011;14721;42.668;23.386;2022-12-29T09:38:18;34.67;;;15.57;;
27209;SDS011;14721;42.668;23.386;2022-12-29T09:40:50;28.50;;;15.27;;
27209;SDS011;14721;42.668;23.386;2022-12-29T09:46:17;27.70;;;12.83;;
27209;SDS011;14721;42.668;23.386;2022-12-29T09:48:44;28.53;;;13.60;;
27209;SDS011;14721;42.668;23.386;2022-12-29T09:51:15;29.40;;;13.83;;
27209;SDS011;14721;42.668;23.386;2022-12-29T09:53:56;38.57;;;15.27;;
27209;SDS011;14721;42.668;23.386;2022-12-29T09:56:25;27.70;;;13.43;;
27209;SDS011;14721;42.668;23.386;2022-12-29T09:58:54;28.27;;;14.30;;
27209;SDS011;14721;42.668;23.386;2022-12-29T10:01:30;26.43;;;13.37;;
27209;SDS011;14721;42.668;23.386;2022-12-29T10:03:59;26.67;;;13.43;;
27209;SDS011;14721;42.668;23.386;2022-12-29T10:06:41;32.43;;;12.63;;
27209;SDS011;14721;42.668;23.386;2022-12-29T10:12:27;25.87;;;12.33;;
27209;SDS011;14721;42.668;23.386;2022-12-29T10:17:39;27.00;;;12.43;;
27209;SDS011;14721;42.668;23.386;2022-12-29T10:25:45;28.67;;;12.50;;
27209;SDS011;14721;42.668;23.386;2022-12-29T10:28:19;24.43;;;11.90;;
27209;SDS011;14721;42.668;23.386;2022-12-29T10:30:48;28.43;;;14.10;;
27209;SDS011;14721;42.668;23.386;2022-12-29T10:33:19;28.00;;;12.20;;
27209;SDS011;14721;42.668;23.386;2022-12-29T10:35:49;25.97;;;12.93;;
27209;SDS011;14721;42.668;23.386;2022-12-29T10:38:27;23.37;;;12.70;;
27209;SDS011;14721;42.668;23.386;2022-12-29T10:41:03;28.23;;;13.57;;
27209;SDS011;14721;42.668;23.386;2022-12-29T10:43:41;31.83;;;14.73;;
27209;SDS011;14721;42.668;23.386;2022-12-29T10:46:12;21.37;;;11.77;;
27209;SDS011;14721;42.668;23.386;2022-12-29T10:48:43;24.10;;;13.23;;
27209;SDS011;14721;42.668;23.386;2022-12-29T10:51:15;26.03;;;12.93;;
27209;SDS011;14721;42.668;23.386;2022-12-29T10:53:48;24.20;;;12.23;;
27209;SDS011;14721;42.668;23.386;2022-12-29T10:56:39;27.43;;;12.27;;
27209;SDS011;14721;42.668;23.386;2022-12-29T10:59:21;25.00;;;12.63;;
27209;SDS011;14721;42.668;23.386;2022-12-29T11:07:23;29.93;;;14.53;;
27209;SDS011;14721;42.668;23.386;2022-12-29T11:09:51;25.77;;;12.67;;
27209;SDS011;14721;42.668;23.386;2022-12-29T11:17:50;31.03;;;12.87;;
27209;SDS011;14721;42.668;23.386;2022-12-29T11:20:39;30.03;;;13.10;;
27209;SDS011;14721;42.668;23.386;2022-12-29T11:23:05;30.23;;;14.30;;
27209;SDS011;14721;42.668;23.386;2022-12-29T11:25:52;28.60;;;13.53;;
27209;SDS011;14721;42.668;23.386;2022-12-29T11:28:31;26.23;;;12.90;;
27209;SDS011;14721;42.668;23.386;2022-12-29T11:30:59;28.50;;;14.63;;
27209;SDS011;14721;42.668;23.386;2022-12-29T11:33:29;28.13;;;14.30;;
27209;SDS011;14721;42.668;23.386;2022-12-29T11:36:07;30.67;;;15.07;;
27209;SDS011;14721;42.668;23.386;2022-12-29T11:38:39;31.23;;;14.90;;
27209;SDS011;14721;42.668;23.386;2022-12-29T11:41:10;30.07;;;13.80;;
27209;SDS011;14721;42.668;23.386;2022-12-29T11:43:41;30.07;;;16.33;;
27209;SDS011;14721;42.668;23.386;2022-12-29T11:46:51;31.83;;;14.23;;
27209;SDS011;14721;42.668;23.386;2022-12-29T11:48:59;30.47;;;14.83;;
27209;SDS011;14721;42.668;23.386;2022-12-29T11:53:58;30.13;;;14.50;;
27209;SDS011;14721;42.668;23.386;2022-12-29T11:56:45;29.67;;;14.43;;
27209;SDS011;14721;42.668;23.386;2022-12-29T12:01:56;33.93;;;14.03;;
27209;SDS011;14721;42.668;23.386;2022-12-29T12:04:24;31.70;;;14.13;;
27209;SDS011;14721;42.668;23.386;2022-12-29T12:07:01;29.60;;;14.87;;
27209;SDS011;14721;42.668;23.386;2022-12-29T12:12:58;28.07;;;13.30;;
27209;SDS011;14721;42.668;23.386;2022-12-29T12:15:15;27.90;;;14.10;;
27209;SDS011;14721;42.668;23.386;2022-12-29T12:29:34;28.63;;;13.63;;
27209;SDS011;14721;42.668;23.386;2022-12-29T12:35:11;29.43;;;14.40;;
27209;SDS011;14721;42.668;23.386;2022-12-29T12:43:43;27.90;;;14.63;;
27209;SDS011;14721;42.668;23.386;2022-12-29T12:51:42;29.77;;;16.70;;
27209;SDS011;14721;42.668;23.386;2022-12-29T13:00:16;23.87;;;11.97;;
27209;SDS011;14721;42.668;23.386;2022-12-29T13:02:59;27.87;;;13.17;;
27209;SDS011;14721;42.668;23.386;2022-12-29T13:05:47;26.13;;;12.97;;
27209;SDS011;14721;42.668;23.386;2022-12-29T13:11:21;23.77;;;12.63;;
27209;SDS011;14721;42.668;23.386;2022-12-29T13:17:00;28.40;;;12.87;;
27209;SDS011;14721;42.668;23.386;2022-12-29T13:19:48;25.53;;;12.27;;
27209;SDS011;14721;42.668;23.386;2022-12-29T13:22:30;28.97;;;13.13;;
27209;SDS011;14721;42.668;23.386;2022-12-29T13:30:33;31.10;;;14.37;;
27209;SDS011;14721;42.668;23.386;2022-12-29T13:38:46;26.00;;;12.40;;
27209;SDS011;14721;42.668;23.386;2022-12-29T13:41:18;30.77;;;14.27;;
27209;SDS011;14721;42.668;23.386;2022-12-29T13:44:05;25.07;;;11.57;;
27209;SDS011;14721;42.668;23.386;2022-12-29T13:46:39;29.80;;;13.23;;
27209;SDS011;14721;42.668;23.386;2022-12-29T13:49:18;27.77;;;12.70;;
27209;SDS011;14721;42.668;23.386;2022-12-29T13:51:53;31.10;;;15.13;;
27209;SDS011;14721;42.668;23.386;2022-12-29T13:57:13;26.90;;;13.20;;
27209;SDS011;14721;42.668;23.386;2022-12-29T13:59:48;30.40;;;13.83;;
27209;SDS011;14721;42.668;23.386;2022-12-29T14:02:33;27.67;;;15.13;;
27209;SDS011;14721;42.668;23.386;2022-12-29T14:07:45;32.33;;;14.33;;
27209;SDS011;14721;42.668;23.386;2022-12-29T14:13:05;31.67;;;14.37;;
27209;SDS011;14721;42.668;23.386;2022-12-29T14:15:31;41.50;;;14.47;;
27209;SDS011;14721;42.668;23.386;2022-12-29T14:18:02;29.40;;;15.50;;
27209;SDS011;14721;42.668;23.386;2022-12-29T14:20:31;29.43;;;14.67;;
27209;SDS011;14721;42.668;23.386;2022-12-29T14:22:58;33.17;;;14.27;;
27209;SDS011;14721;42.668;23.386;2022-12-29T14:25:58;30.43;;;13.83;;
27209;SDS011;14721;42.668;23.386;2022-12-29T14:28:28;31.17;;;13.67;;
27209;SDS011;14721;42.668;23.386;2022-12-29T14:31:00;30.33;;;13.40;;
27209;SDS011;14721;42.668;23.386;2022-12-29T14:33:29;25.80;;;13.97;;
27209;SDS011;14721;42.668;23.386;2022-12-29T14:35:56;33.57;;;16.40;;
27209;SDS011;14721;42.668;23.386;2022-12-29T14:38:26;29.43;;;15.07;;
27209;SDS011;14721;42.668;23.386;2022-12-29T14:41:15;30.00;;;13.87;;
27209;SDS011;14721;42.668;23.386;2022-12-29T14:44:31;31.90;;;14.83;;
27209;SDS011;14721;42.668;23.386;2022-12-29T14:49:18;37.77;;;20.83;;
27209;SDS011;14721;42.668;23.386;2022-12-29T14:51:48;42.67;;;18.77;;
27209;SDS011;14721;42.668;23.386;2022-12-29T14:57:07;40.23;;;18.97;;
27209;SDS011;14721;42.668;23.386;2022-12-29T14:59:41;31.17;;;17.63;;
27209;SDS011;14721;42.668;23.386;2022-12-29T15:02:15;38.17;;;18.87;;
27209;SDS011;14721;42.668;23.386;2022-12-29T15:04:45;45.43;;;21.10;;
27209;SDS011;14721;42.668;23.386;2022-12-29T15:07:12;42.43;;;21.60;;
27209;SDS011;14721;42.668;23.386;2022-12-29T15:09:45;56.37;;;27.33;;
27209;SDS011;14721;42.668;23.386;2022-12-29T15:14:55;67.53;;;30.63;;
27209;SDS011;14721;42.668;23.386;2022-12-29T15:17:26;70.07;;;34.13;;
27209;SDS011;14721;42.668;23.386;2022-12-29T15:19:59;72.37;;;30.80;;
27209;SDS011;14721;42.668;23.386;2022-12-29T15:22:26;59.60;;;28.43;;
27209;SDS011;14721;42.668;23.386;2022-12-29T15:24:53;59.37;;;30.53;;
27209;SDS011;14721;42.668;23.386;2022-12-29T15:27:24;60.20;;;29.57;;
27209;SDS011;14721;42.668;23.386;2022-12-29T15:29:56;58.43;;;28.33;;
27209;SDS011;14721;42.668;23.386;2022-12-29T15:32:27;58.37;;;28.70;;
27209;SDS011;14721;42.668;23.386;2022-12-29T15:35:00;64.43;;;30.43;;
27209;SDS011;14721;42.668;23.386;2022-12-29T15:37:55;55.43;;;25.77;;
27209;SDS011;14721;42.668;23.386;2022-12-29T15:40:29;59.13;;;24.97;;
27209;SDS011;14721;42.668;23.386;2022-12-29T15:43:06;48.33;;;24.77;;
27209;SDS011;14721;42.668;23.386;2022-12-29T15:45:34;54.17;;;25.10;;
27209;SDS011;14721;42.668;23.386;2022-12-29T15:48:01;52.63;;;25.47;;
27209;SDS011;14721;42.668;23.386;2022-12-29T15:50:30;54.63;;;23.13;;
27209;SDS011;14721;42.668;23.386;2022-12-29T15:52:59;48.83;;;23.03;;
27209;SDS011;14721;42.668;23.386;2022-12-29T15:55:33;47.30;;;22.63;;
27209;SDS011;14721;42.668;23.386;2022-12-29T15:58:01;37.67;;;18.97;;
27209;SDS011;14721;42.668;23.386;2022-12-29T16:00:31;40.50;;;20.40;;
27209;SDS011;14721;42.668;23.386;2022-12-29T16:03:02;35.63;;;19.67;;
27209;SDS011;14721;42.668;23.386;2022-12-29T16:05:37;51.63;;;20.50;;
27209;SDS011;14721;42.668;23.386;2022-12-29T16:08:20;47.70;;;21.87;;
27209;SDS011;14721;42.668;23.386;2022-12-29T16:14:02;33.03;;;15.90;;
27209;SDS011;14721;42.668;23.386;2022-12-29T16:16:40;33.73;;;15.63;;
27209;SDS011;14721;42.668;23.386;2022-12-29T16:21:49;38.03;;;16.97;;
27209;SDS011;14721;42.668;23.386;2022-12-29T16:24:16;32.57;;;15.93;;
27209;SDS011;14721;42.668;23.386;2022-12-29T16:26:46;32.77;;;15.10;;
27209;SDS011;14721;42.668;23.386;2022-12-29T16:29:16;33.30;;;16.43;;
27209;SDS011;14721;42.668;23.386;2022-12-29T16:31:54;33.17;;;15.10;;
27209;SDS011;14721;42.668;23.386;2022-12-29T16:34:31;39.13;;;17.90;;
27209;SDS011;14721;42.668;23.386;2022-12-29T16:37:00;34.57;;;16.10;;
27209;SDS011;14721;42.668;23.386;2022-12-29T16:41:56;36.20;;;16.27;;
27209;SDS011;14721;42.668;23.386;2022-12-29T16:44:26;30.00;;;16.07;;
27209;SDS011;14721;42.668;23.386;2022-12-29T16:49:53;35.53;;;16.77;;
27209;SDS011;14721;42.668;23.386;2022-12-29T16:52:23;31.30;;;14.30;;
27209;SDS011;14721;42.668;23.386;2022-12-29T16:54:54;36.70;;;16.47;;
27209;SDS011;14721;42.668;23.386;2022-12-29T16:57:24;40.00;;;17.13;;
27209;SDS011;14721;42.668;23.386;2022-12-29T16:59:53;33.80;;;16.20;;
27209;SDS011;14721;42.668;23.386;2022-12-29T17:02:22;40.83;;;16.53;;
27209;SDS011;14721;42.668;23.386;2022-12-29T17:04:50;31.30;;;15.10;;
27209;SDS011;14721;42.668;23.386;2022-12-29T17:07:21;34.00;;;16.50;;
27209;SDS011;14721;42.668;23.386;2022-12-29T17:09:52;34.93;;;14.77;;
27209;SDS011;14721;42.668;23.386;2022-12-29T17:12:25;32.10;;;15.67;;
27209;SDS011;14721;42.668;23.386;2022-12-29T17:14:59;30.70;;;14.23;;
27209;SDS011;14721;42.668;23.386;2022-12-29T17:17:38;30.53;;;14.93;;
27209;SDS011;14721;42.668;23.386;2022-12-29T17:20:15;41.00;;;15.60;;
27209;SDS011;14721;42.668;23.386;2022-12-29T17:22:48;29.83;;;14.30;;
27209;SDS011;14721;42.668;23.386;2022-12-29T17:25:17;29.60;;;16.27;;
27209;SDS011;14721;42.668;23.386;2022-12-29T17:30:14;32.03;;;17.37;;
27209;SDS011;14721;42.668;23.386;2022-12-29T17:32:51;47.33;;;20.53;;
27209;SDS011;14721;42.668;23.386;2022-12-29T17:35:40;53.23;;;23.47;;